sensor_id;sensor_type;location;lat;lon;timestamp;P1;durP1;ratioP1;P2;durP2;ratioP2
52494;SDS011;38405;53.212;5.660;2023-04-12T00:01:28;11.63;;;3.10;;
52494;SDS011;38405;53.212;5.660;2023-04-12T00:03:53;13.02;;;2.97;;
52494;SDS011;38405;53.212;5.660;2023-04-12T00:06:19;8.15;;;2.90;;
52494;SDS011;38405;53.212;5.660;2023-04-12T00:08:56;10.75;;;3.08;;
52494;SDS011;38405;53.212;5.660;2023-04-12T00:11:25;9.38;;;3.13;;
52494;SDS011;38405;53.212;5.660;2023-04-12T00:13:55;6.57;;;2.42;;
52494;SDS011;38405;53.212;5.660;2023-04-12T00:16:21;9.75;;;2.70;;
52494;SDS011;38405;53.212;5.660;2023-04-12T00:18:48;6.88;;;3.13;;
52494;SDS011;38405;53.212;5.660;2023-04-12T00:21:15;8.57;;;3.00;;
52494;SDS011;38405;53.212;5.660;2023-04-12T00:23:43;7.93;;;2.70;;
52494;SDS011;38405;53.212;5.660;2023-04-12T00:26:13;12.57;;;3.00;;
52494;SDS011;38405;53.212;5.660;2023-04-12T00:28:40;11.50;;;3.10;;
52494;SDS011;38405;53.212;5.660;2023-04-12T00:31:06;13.60;;;2.80;;
52494;SDS011;38405;53.212;5.660;2023-04-12T00:33:33;12.98;;;3.38;;
52494;SDS011;38405;53.212;5.660;2023-04-12T00:35:59;7.47;;;3.13;;
52494;SDS011;38405;53.212;5.660;2023-04-12T00:38:28;10.68;;;2.72;;
52494;SDS011;38405;53.212;5.660;2023-04-12T00:40:53;13.00;;;2.95;;
52494;SDS011;38405;53.212;5.660;2023-04-12T00:43:19;8.52;;;2.95;;
52494;SDS011;38405;53.212;5.660;2023-04-12T00:45:45;6.75;;;2.17;;
52494;SDS011;38405;53.212;5.660;2023-04-12T00:48:11;12.38;;;3.13;;
52494;SDS011;38405;53.212;5.660;2023-04-12T00:50:41;8.48;;;3.15;;
52494;SDS011;38405;53.212;5.660;2023-04-12T00:53:08;9.32;;;2.75;;
52494;SDS011;38405;53.212;5.660;2023-04-12T00:55:39;14.75;;;3.60;;
52494;SDS011;38405;53.212;5.660;2023-04-12T00:58:08;9.68;;;3.17;;
52494;SDS011;38405;53.212;5.660;2023-04-12T01:00:34;14.07;;;3.63;;
52494;SDS011;38405;53.212;5.660;2023-04-12T01:03:00;8.98;;;3.40;;
52494;SDS011;38405;53.212;5.660;2023-04-12T01:05:28;8.68;;;2.88;;
52494;SDS011;38405;53.212;5.660;2023-04-12T01:08:01;7.93;;;2.47;;
52494;SDS011;38405;53.212;5.660;2023-04-12T01:10:40;9.57;;;3.13;;
52494;SDS011;38405;53.212;5.660;2023-04-12T01:13:28;10.88;;;3.13;;
52494;SDS011;38405;53.212;5.660;2023-04-12T01:16:02;11.15;;;2.70;;
52494;SDS011;38405;53.212;5.660;2023-04-12T01:18:39;12.00;;;3.03;;
52494;SDS011;38405;53.212;5.660;2023-04-12T01:21:12;12.43;;;3.03;;
52494;SDS011;38405;53.212;5.660;2023-04-12T01:29:15;5.90;;;2.50;;
52494;SDS011;38405;53.212;5.660;2023-04-12T01:34:25;11.07;;;3.17;;
52494;SDS011;38405;53.212;5.660;2023-04-12T01:36:54;13.50;;;3.00;;
52494;SDS011;38405;53.212;5.660;2023-04-12T01:39:21;6.53;;;2.78;;
52494;SDS011;38405;53.212;5.660;2023-04-12T01:41:47;10.95;;;2.83;;
52494;SDS011;38405;53.212;5.660;2023-04-12T01:44:16;11.52;;;2.97;;
52494;SDS011;38405;53.212;5.660;2023-04-12T01:46:45;8.55;;;2.63;;
52494;SDS011;38405;53.212;5.660;2023-04-12T01:49:12;10.18;;;3.00;;
52494;SDS011;38405;53.212;5.660;2023-04-12T01:52:24;9.93;;;2.70;;
52494;SDS011;38405;53.212;5.660;2023-04-12T01:54:36;11.43;;;3.15;;
52494;SDS011;38405;53.212;5.660;2023-04-12T01:57:05;4.72;;;2.15;;
52494;SDS011;38405;53.212;5.660;2023-04-12T01:59:39;8.73;;;2.78;;
52494;SDS011;38405;53.212;5.660;2023-04-12T02:02:07;10.77;;;2.33;;
52494;SDS011;38405;53.212;5.660;2023-04-12T02:04:34;8.85;;;2.05;;
52494;SDS011;38405;53.212;5.660;2023-04-12T02:07:01;12.35;;;2.92;;
52494;SDS011;38405;53.212;5.660;2023-04-12T02:09:27;7.55;;;2.20;;
52494;SDS011;38405;53.212;5.660;2023-04-12T02:11:53;9.40;;;2.58;;
52494;SDS011;38405;53.212;5.660;2023-04-12T02:14:20;6.53;;;2.50;;
52494;SDS011;38405;53.212;5.660;2023-04-12T02:16:46;9.05;;;2.53;;
52494;SDS011;38405;53.212;5.660;2023-04-12T02:19:12;8.10;;;2.20;;
52494;SDS011;38405;53.212;5.660;2023-04-12T02:21:41;4.57;;;2.10;;
52494;SDS011;38405;53.212;5.660;2023-04-12T02:24:11;4.93;;;2.03;;
52494;SDS011;38405;53.212;5.660;2023-04-12T02:26:37;4.30;;;2.00;;
52494;SDS011;38405;53.212;5.660;2023-04-12T02:29:03;5.00;;;2.28;;
52494;SDS011;38405;53.212;5.660;2023-04-12T02:31:33;6.53;;;2.17;;
52494;SDS011;38405;53.212;5.660;2023-04-12T02:34:00;8.68;;;2.17;;
52494;SDS011;38405;53.212;5.660;2023-04-12T02:36:27;6.78;;;2.30;;
52494;SDS011;38405;53.212;5.660;2023-04-12T02:38:53;5.57;;;2.08;;
52494;SDS011;38405;53.212;5.660;2023-04-12T02:41:20;4.50;;;2.25;;
52494;SDS011;38405;53.212;5.660;2023-04-12T02:43:46;4.45;;;1.98;;
52494;SDS011;38405;53.212;5.660;2023-04-12T02:46:20;6.65;;;2.78;;
52494;SDS011;38405;53.212;5.660;2023-04-12T02:48:47;6.80;;;2.38;;
52494;SDS011;38405;53.212;5.660;2023-04-12T02:51:13;4.20;;;2.15;;
52494;SDS011;38405;53.212;5.660;2023-04-12T02:53:40;5.25;;;2.33;;
52494;SDS011;38405;53.212;5.660;2023-04-12T02:56:05;7.70;;;2.80;;
52494;SDS011;38405;53.212;5.660;2023-04-12T02:58:32;6.10;;;2.90;;
52494;SDS011;38405;53.212;5.660;2023-04-12T03:00:59;9.52;;;2.10;;
52494;SDS011;38405;53.212;5.660;2023-04-12T03:03:25;8.15;;;2.22;;
52494;SDS011;38405;53.212;5.660;2023-04-12T03:05:52;4.65;;;1.90;;
52494;SDS011;38405;53.212;5.660;2023-04-12T03:08:19;5.47;;;2.17;;
52494;SDS011;38405;53.212;5.660;2023-04-12T03:10:45;5.07;;;2.10;;
52494;SDS011;38405;53.212;5.660;2023-04-12T03:13:11;5.05;;;2.35;;
52494;SDS011;38405;53.212;5.660;2023-04-12T03:15:37;5.68;;;2.03;;
52494;SDS011;38405;53.212;5.660;2023-04-12T03:18:03;8.00;;;2.17;;
52494;SDS011;38405;53.212;5.660;2023-04-12T03:20:28;5.68;;;2.42;;
52494;SDS011;38405;53.212;5.660;2023-04-12T03:22:54;8.65;;;2.55;;
52494;SDS011;38405;53.212;5.660;2023-04-12T03:25:29;7.32;;;2.55;;
52494;SDS011;38405;53.212;5.660;2023-04-12T03:27:55;6.90;;;2.88;;
52494;SDS011;38405;53.212;5.660;2023-04-12T03:30:20;8.13;;;2.50;;
52494;SDS011;38405;53.212;5.660;2023-04-12T03:32:46;5.43;;;2.50;;
52494;SDS011;38405;53.212;5.660;2023-04-12T03:35:12;4.93;;;2.40;;
52494;SDS011;38405;53.212;5.660;2023-04-12T03:37:39;4.88;;;2.10;;
52494;SDS011;38405;53.212;5.660;2023-04-12T03:40:06;5.63;;;2.40;;
52494;SDS011;38405;53.212;5.660;2023-04-12T03:42:32;10.93;;;2.30;;
52494;SDS011;38405;53.212;5.660;2023-04-12T03:44:57;3.50;;;2.10;;
52494;SDS011;38405;53.212;5.660;2023-04-12T03:47:23;6.55;;;2.47;;
52494;SDS011;38405;53.212;5.660;2023-04-12T03:49:48;8.00;;;2.35;;
52494;SDS011;38405;53.212;5.660;2023-04-12T03:52:14;9.27;;;2.58;;
52494;SDS011;38405;53.212;5.660;2023-04-12T03:54:40;5.22;;;2.20;;
52494;SDS011;38405;53.212;5.660;2023-04-12T03:57:06;6.57;;;2.40;;
52494;SDS011;38405;53.212;5.660;2023-04-12T03:59:31;7.68;;;2.28;;
52494;SDS011;38405;53.212;5.660;2023-04-12T04:01:57;7.43;;;2.33;;
52494;SDS011;38405;53.212;5.660;2023-04-12T04:04:25;6.00;;;2.30;;
52494;SDS011;38405;53.212;5.660;2023-04-12T04:06:51;5.30;;;2.63;;
52494;SDS011;38405;53.212;5.660;2023-04-12T04:09:17;3.80;;;2.10;;
52494;SDS011;38405;53.212;5.660;2023-04-12T04:11:43;3.75;;;1.92;;
52494;SDS011;38405;53.212;5.660;2023-04-12T04:14:09;4.55;;;2.60;;
52494;SDS011;38405;53.212;5.660;2023-04-12T04:16:35;4.80;;;2.40;;
52494;SDS011;38405;53.212;5.660;2023-04-12T04:19:03;5.03;;;2.40;;
52494;SDS011;38405;53.212;5.660;2023-04-12T04:21:29;9.00;;;2.67;;
52494;SDS011;38405;53.212;5.660;2023-04-12T04:23:57;7.95;;;2.95;;
52494;SDS011;38405;53.212;5.660;2023-04-12T04:26:25;6.05;;;3.25;;
52494;SDS011;38405;53.212;5.660;2023-04-12T04:28:58;8.90;;;3.17;;
52494;SDS011;38405;53.212;5.660;2023-04-12T04:31:27;7.47;;;2.88;;
52494;SDS011;38405;53.212;5.660;2023-04-12T04:33:58;8.55;;;2.92;;
52494;SDS011;38405;53.212;5.660;2023-04-12T04:36:27;6.10;;;2.85;;
52494;SDS011;38405;53.212;5.660;2023-04-12T04:38:54;9.27;;;2.97;;
52494;SDS011;38405;53.212;5.660;2023-04-12T04:41:24;4.97;;;2.70;;
52494;SDS011;38405;53.212;5.660;2023-04-12T04:43:50;6.18;;;2.58;;
52494;SDS011;38405;53.212;5.660;2023-04-12T04:46:19;6.05;;;2.67;;
52494;SDS011;38405;53.212;5.660;2023-04-12T04:48:49;5.07;;;2.70;;
52494;SDS011;38405;53.212;5.660;2023-04-12T04:51:15;5.85;;;2.40;;
52494;SDS011;38405;53.212;5.660;2023-04-12T04:53:42;6.68;;;2.47;;
52494;SDS011;38405;53.212;5.660;2023-04-12T04:56:08;3.67;;;2.35;;
52494;SDS011;38405;53.212;5.660;2023-04-12T04:58:34;7.20;;;2.60;;
52494;SDS011;38405;53.212;5.660;2023-04-12T05:01:00;5.07;;;2.58;;
52494;SDS011;38405;53.212;5.660;2023-04-12T05:03:26;3.03;;;2.20;;
52494;SDS011;38405;53.212;5.660;2023-04-12T05:05:52;5.78;;;2.33;;
52494;SDS011;38405;53.212;5.660;2023-04-12T05:08:21;7.38;;;2.25;;
52494;SDS011;38405;53.212;5.660;2023-04-12T05:10:50;7.55;;;2.50;;
52494;SDS011;38405;53.212;5.660;2023-04-12T05:13:17;3.70;;;2.40;;
52494;SDS011;38405;53.212;5.660;2023-04-12T05:15:43;4.28;;;2.42;;
52494;SDS011;38405;53.212;5.660;2023-04-12T05:18:09;4.97;;;2.55;;
52494;SDS011;38405;53.212;5.660;2023-04-12T05:20:37;4.38;;;2.60;;
52494;SDS011;38405;53.212;5.660;2023-04-12T05:23:03;4.97;;;2.65;;
52494;SDS011;38405;53.212;5.660;2023-04-12T05:25:29;4.38;;;2.40;;
52494;SDS011;38405;53.212;5.660;2023-04-12T05:27:54;5.20;;;2.75;;
52494;SDS011;38405;53.212;5.660;2023-04-12T05:30:20;7.38;;;2.72;;
52494;SDS011;38405;53.212;5.660;2023-04-12T05:32:46;7.22;;;2.75;;
52494;SDS011;38405;53.212;5.660;2023-04-12T05:35:11;5.30;;;2.72;;
52494;SDS011;38405;53.212;5.660;2023-04-12T05:37:37;10.20;;;3.13;;
52494;SDS011;38405;53.212;5.660;2023-04-12T05:40:03;4.57;;;2.83;;
52494;SDS011;38405;53.212;5.660;2023-04-12T05:42:33;4.80;;;2.70;;
52494;SDS011;38405;53.212;5.660;2023-04-12T05:45:01;7.63;;;2.60;;
52494;SDS011;38405;53.212;5.660;2023-04-12T05:47:27;3.78;;;2.65;;
52494;SDS011;38405;53.212;5.660;2023-04-12T05:49:53;7.93;;;2.90;;
52494;SDS011;38405;53.212;5.660;2023-04-12T05:52:19;5.93;;;3.10;;
52494;SDS011;38405;53.212;5.660;2023-04-12T05:54:45;5.40;;;2.60;;
52494;SDS011;38405;53.212;5.660;2023-04-12T05:57:10;6.57;;;2.65;;
52494;SDS011;38405;53.212;5.660;2023-04-12T05:59:36;4.57;;;2.58;;
52494;SDS011;38405;53.212;5.660;2023-04-12T06:02:02;6.78;;;2.70;;
52494;SDS011;38405;53.212;5.660;2023-04-12T06:04:28;8.32;;;2.15;;
52494;SDS011;38405;53.212;5.660;2023-04-12T06:06:54;5.85;;;2.50;;
52494;SDS011;38405;53.212;5.660;2023-04-12T06:09:20;11.70;;;2.45;;
52494;SDS011;38405;53.212;5.660;2023-04-12T06:11:46;2.53;;;2.28;;
52494;SDS011;38405;53.212;5.660;2023-04-12T06:14:11;4.47;;;2.50;;
52494;SDS011;38405;53.212;5.660;2023-04-12T06:16:37;6.10;;;2.40;;
52494;SDS011;38405;53.212;5.660;2023-04-12T06:19:03;5.25;;;2.33;;
52494;SDS011;38405;53.212;5.660;2023-04-12T06:21:29;4.35;;;2.70;;
52494;SDS011;38405;53.212;5.660;2023-04-12T06:23:55;2.97;;;2.10;;
52494;SDS011;38405;53.212;5.660;2023-04-12T06:26:20;5.55;;;2.70;;
52494;SDS011;38405;53.212;5.660;2023-04-12T06:28:46;4.07;;;2.35;;
52494;SDS011;38405;53.212;5.660;2023-04-12T06:31:12;2.40;;;2.20;;
52494;SDS011;38405;53.212;5.660;2023-04-12T06:33:37;8.30;;;2.80;;
52494;SDS011;38405;53.212;5.660;2023-04-12T06:36:03;6.55;;;2.40;;
52494;SDS011;38405;53.212;5.660;2023-04-12T06:38:29;4.10;;;2.55;;
52494;SDS011;38405;53.212;5.660;2023-04-12T06:40:55;6.40;;;2.80;;
52494;SDS011;38405;53.212;5.660;2023-04-12T06:43:20;4.45;;;2.88;;
52494;SDS011;38405;53.212;5.660;2023-04-12T06:45:47;7.60;;;2.67;;
52494;SDS011;38405;53.212;5.660;2023-04-12T06:48:15;4.20;;;2.63;;
52494;SDS011;38405;53.212;5.660;2023-04-12T06:50:41;5.85;;;2.92;;
52494;SDS011;38405;53.212;5.660;2023-04-12T06:53:08;4.15;;;2.45;;
52494;SDS011;38405;53.212;5.660;2023-04-12T06:55:33;4.10;;;2.90;;
52494;SDS011;38405;53.212;5.660;2023-04-12T06:57:59;3.97;;;2.40;;
52494;SDS011;38405;53.212;5.660;2023-04-12T07:00:25;3.97;;;2.50;;
52494;SDS011;38405;53.212;5.660;2023-04-12T07:02:51;4.47;;;2.30;;
52494;SDS011;38405;53.212;5.660;2023-04-12T07:05:16;3.72;;;2.35;;
52494;SDS011;38405;53.212;5.660;2023-04-12T07:07:43;5.75;;;2.65;;
52494;SDS011;38405;53.212;5.660;2023-04-12T07:10:09;4.72;;;2.60;;
52494;SDS011;38405;53.212;5.660;2023-04-12T07:12:35;4.20;;;2.10;;
52494;SDS011;38405;53.212;5.660;2023-04-12T07:15:00;3.00;;;2.50;;
52494;SDS011;38405;53.212;5.660;2023-04-12T07:17:26;5.90;;;2.65;;
52494;SDS011;38405;53.212;5.660;2023-04-12T07:19:55;2.88;;;1.92;;
52494;SDS011;38405;53.212;5.660;2023-04-12T07:22:21;2.97;;;2.28;;
52494;SDS011;38405;53.212;5.660;2023-04-12T07:24:47;4.88;;;2.45;;
52494;SDS011;38405;53.212;5.660;2023-04-12T07:27:13;3.40;;;2.67;;
52494;SDS011;38405;53.212;5.660;2023-04-12T07:29:38;5.55;;;2.58;;
52494;SDS011;38405;53.212;5.660;2023-04-12T07:32:05;6.85;;;2.50;;
52494;SDS011;38405;53.212;5.660;2023-04-12T07:34:32;4.03;;;2.25;;
52494;SDS011;38405;53.212;5.660;2023-04-12T07:36:57;1.77;;;1.65;;
52494;SDS011;38405;53.212;5.660;2023-04-12T07:39:25;3.13;;;1.90;;
52494;SDS011;38405;53.212;5.660;2023-04-12T07:41:51;7.20;;;2.40;;
52494;SDS011;38405;53.212;5.660;2023-04-12T07:44:17;5.50;;;2.20;;
52494;SDS011;38405;53.212;5.660;2023-04-12T07:46:42;5.57;;;2.40;;
52494;SDS011;38405;53.212;5.660;2023-04-12T07:49:08;5.20;;;2.40;;
52494;SDS011;38405;53.212;5.660;2023-04-12T07:51:34;6.13;;;2.45;;
52494;SDS011;38405;53.212;5.660;2023-04-12T07:54:00;8.30;;;2.47;;
52494;SDS011;38405;53.212;5.660;2023-04-12T07:56:26;7.90;;;2.60;;
52494;SDS011;38405;53.212;5.660;2023-04-12T07:58:52;5.03;;;2.20;;
52494;SDS011;38405;53.212;5.660;2023-04-12T08:01:18;4.70;;;2.50;;
52494;SDS011;38405;53.212;5.660;2023-04-12T08:03:43;6.70;;;2.67;;
52494;SDS011;38405;53.212;5.660;2023-04-12T08:06:09;6.40;;;2.20;;
52494;SDS011;38405;53.212;5.660;2023-04-12T08:08:35;7.38;;;2.65;;
52494;SDS011;38405;53.212;5.660;2023-04-12T08:11:00;4.55;;;2.75;;
52494;SDS011;38405;53.212;5.660;2023-04-12T08:13:31;4.75;;;2.60;;
52494;SDS011;38405;53.212;5.660;2023-04-12T08:15:57;11.07;;;3.38;;
52494;SDS011;38405;53.212;5.660;2023-04-12T08:18:23;3.83;;;2.53;;
52494;SDS011;38405;53.212;5.660;2023-04-12T08:20:49;9.63;;;3.00;;
52494;SDS011;38405;53.212;5.660;2023-04-12T08:23:15;10.48;;;3.35;;
52494;SDS011;38405;53.212;5.660;2023-04-12T08:25:42;6.53;;;3.20;;
52494;SDS011;38405;53.212;5.660;2023-04-12T08:28:07;15.27;;;3.05;;
52494;SDS011;38405;53.212;5.660;2023-04-12T08:30:33;5.97;;;2.60;;
52494;SDS011;38405;53.212;5.660;2023-04-12T08:32:59;6.55;;;2.88;;
52494;SDS011;38405;53.212;5.660;2023-04-12T08:35:25;15.32;;;3.30;;
52494;SDS011;38405;53.212;5.660;2023-04-12T08:37:51;21.88;;;3.50;;
52494;SDS011;38405;53.212;5.660;2023-04-12T08:40:17;19.98;;;3.40;;
52494;SDS011;38405;53.212;5.660;2023-04-12T08:42:42;16.23;;;4.22;;
52494;SDS011;38405;53.212;5.660;2023-04-12T08:45:09;18.65;;;3.60;;
52494;SDS011;38405;53.212;5.660;2023-04-12T08:47:39;19.92;;;3.20;;
52494;SDS011;38405;53.212;5.660;2023-04-12T08:50:06;20.48;;;2.55;;
52494;SDS011;38405;53.212;5.660;2023-04-12T08:52:33;11.60;;;2.28;;
52494;SDS011;38405;53.212;5.660;2023-04-12T08:55:03;13.80;;;2.85;;
52494;SDS011;38405;53.212;5.660;2023-04-12T08:57:33;9.77;;;2.42;;
52494;SDS011;38405;53.212;5.660;2023-04-12T09:00:00;12.50;;;3.45;;
52494;SDS011;38405;53.212;5.660;2023-04-12T09:02:27;18.73;;;3.13;;
52494;SDS011;38405;53.212;5.660;2023-04-12T09:04:54;10.48;;;1.88;;
52494;SDS011;38405;53.212;5.660;2023-04-12T09:07:20;10.65;;;2.10;;
52494;SDS011;38405;53.212;5.660;2023-04-12T09:09:53;9.30;;;1.98;;
52494;SDS011;38405;53.212;5.660;2023-04-12T09:12:19;13.68;;;2.63;;
52494;SDS011;38405;53.212;5.660;2023-04-12T09:17:37;10.60;;;2.25;;
52494;SDS011;38405;53.212;5.660;2023-04-12T09:22:36;11.30;;;2.45;;
52494;SDS011;38405;53.212;5.660;2023-04-12T09:25:08;12.35;;;2.53;;
52494;SDS011;38405;53.212;5.660;2023-04-12T09:27:44;12.38;;;1.98;;
52494;SDS011;38405;53.212;5.660;2023-04-12T09:30:11;11.55;;;2.33;;
52494;SDS011;38405;53.212;5.660;2023-04-12T09:32:37;12.10;;;2.67;;
52494;SDS011;38405;53.212;5.660;2023-04-12T09:35:03;12.63;;;2.20;;
52494;SDS011;38405;53.212;5.660;2023-04-12T09:37:29;6.35;;;1.48;;
52494;SDS011;38405;53.212;5.660;2023-04-12T09:39:59;9.63;;;1.80;;
52494;SDS011;38405;53.212;5.660;2023-04-12T09:42:26;7.03;;;1.90;;
52494;SDS011;38405;53.212;5.660;2023-04-12T09:44:53;9.88;;;2.15;;
52494;SDS011;38405;53.212;5.660;2023-04-12T09:47:19;7.70;;;2.00;;
52494;SDS011;38405;53.212;5.660;2023-04-12T09:49:45;9.48;;;2.15;;
52494;SDS011;38405;53.212;5.660;2023-04-12T09:52:11;11.63;;;2.28;;
52494;SDS011;38405;53.212;5.660;2023-04-12T09:54:41;7.95;;;2.10;;
52494;SDS011;38405;53.212;5.660;2023-04-12T09:57:11;7.15;;;1.95;;
52494;SDS011;38405;53.212;5.660;2023-04-12T09:59:37;6.45;;;1.75;;
52494;SDS011;38405;53.212;5.660;2023-04-12T10:02:14;8.95;;;1.77;;
52494;SDS011;38405;53.212;5.660;2023-04-12T10:04:41;9.63;;;2.42;;
52494;SDS011;38405;53.212;5.660;2023-04-12T10:07:07;11.68;;;2.60;;
52494;SDS011;38405;53.212;5.660;2023-04-12T10:09:33;9.63;;;2.15;;
52494;SDS011;38405;53.212;5.660;2023-04-12T10:12:02;9.10;;;1.73;;
52494;SDS011;38405;53.212;5.660;2023-04-12T10:14:28;11.27;;;2.33;;
52494;SDS011;38405;53.212;5.660;2023-04-12T10:16:55;5.57;;;1.90;;
52494;SDS011;38405;53.212;5.660;2023-04-12T10:19:23;13.60;;;2.40;;
52494;SDS011;38405;53.212;5.660;2023-04-12T10:21:50;13.85;;;2.40;;
52494;SDS011;38405;53.212;5.660;2023-04-12T10:24:16;10.30;;;2.55;;
52494;SDS011;38405;53.212;5.660;2023-04-12T10:26:42;8.38;;;2.20;;
52494;SDS011;38405;53.212;5.660;2023-04-12T10:31:58;10.32;;;2.30;;
52494;SDS011;38405;53.212;5.660;2023-04-12T10:34:53;11.98;;;2.58;;
52494;SDS011;38405;53.212;5.660;2023-04-12T10:37:20;13.13;;;2.38;;
52494;SDS011;38405;53.212;5.660;2023-04-12T10:39:52;6.18;;;1.83;;
52494;SDS011;38405;53.212;5.660;2023-04-12T10:42:20;8.73;;;1.98;;
52494;SDS011;38405;53.212;5.660;2023-04-12T10:44:51;12.25;;;2.65;;
52494;SDS011;38405;53.212;5.660;2023-04-12T10:55:39;12.90;;;2.70;;
52494;SDS011;38405;53.212;5.660;2023-04-12T10:58:07;13.15;;;2.75;;
52494;SDS011;38405;53.212;5.660;2023-04-12T11:03:20;11.40;;;3.30;;
52494;SDS011;38405;53.212;5.660;2023-04-12T11:05:56;14.70;;;2.53;;
52494;SDS011;38405;53.212;5.660;2023-04-12T11:08:29;12.57;;;2.83;;
52494;SDS011;38405;53.212;5.660;2023-04-12T11:11:00;11.63;;;2.05;;
52494;SDS011;38405;53.212;5.660;2023-04-12T11:13:33;18.15;;;2.50;;
52494;SDS011;38405;53.212;5.660;2023-04-12T11:16:00;11.40;;;2.35;;
52494;SDS011;38405;53.212;5.660;2023-04-12T11:18:28;12.60;;;2.60;;
52494;SDS011;38405;53.212;5.660;2023-04-12T11:20:55;14.60;;;2.88;;
52494;SDS011;38405;53.212;5.660;2023-04-12T11:23:22;14.57;;;3.17;;
52494;SDS011;38405;53.212;5.660;2023-04-12T11:25:49;13.55;;;2.78;;
52494;SDS011;38405;53.212;5.660;2023-04-12T11:28:17;14.35;;;3.08;;
52494;SDS011;38405;53.212;5.660;2023-04-12T11:30:52;10.35;;;2.55;;
52494;SDS011;38405;53.212;5.660;2023-04-12T11:36:04;11.68;;;2.80;;
52494;SDS011;38405;53.212;5.660;2023-04-12T11:38:31;11.88;;;2.63;;
52494;SDS011;38405;53.212;5.660;2023-04-12T11:40:59;10.25;;;2.20;;
52494;SDS011;38405;53.212;5.660;2023-04-12T11:43:24;11.25;;;2.65;;
52494;SDS011;38405;53.212;5.660;2023-04-12T11:45:57;10.23;;;2.25;;
52494;SDS011;38405;53.212;5.660;2023-04-12T11:48:24;9.13;;;2.17;;
52494;SDS011;38405;53.212;5.660;2023-04-12T11:50:53;8.80;;;2.33;;
52494;SDS011;38405;53.212;5.660;2023-04-12T11:53:25;10.68;;;2.45;;
52494;SDS011;38405;53.212;5.660;2023-04-12T11:55:53;8.95;;;2.30;;
52494;SDS011;38405;53.212;5.660;2023-04-12T11:58:21;12.98;;;2.42;;
52494;SDS011;38405;53.212;5.660;2023-04-12T12:00:49;10.25;;;2.53;;
52494;SDS011;38405;53.212;5.660;2023-04-12T12:03:15;11.57;;;2.38;;
52494;SDS011;38405;53.212;5.660;2023-04-12T12:05:40;16.33;;;2.72;;
52494;SDS011;38405;53.212;5.660;2023-04-12T12:08:07;12.18;;;2.83;;
52494;SDS011;38405;53.212;5.660;2023-04-12T12:10:36;10.98;;;2.20;;
52494;SDS011;38405;53.212;5.660;2023-04-12T12:13:10;13.25;;;2.60;;
52494;SDS011;38405;53.212;5.660;2023-04-12T12:15:36;10.68;;;2.50;;
52494;SDS011;38405;53.212;5.660;2023-04-12T12:18:02;13.38;;;2.67;;
52494;SDS011;38405;53.212;5.660;2023-04-12T12:20:32;12.18;;;2.70;;
52494;SDS011;38405;53.212;5.660;2023-04-12T12:23:02;9.15;;;2.15;;
52494;SDS011;38405;53.212;5.660;2023-04-12T12:25:28;9.35;;;2.42;;
52494;SDS011;38405;53.212;5.660;2023-04-12T12:27:55;8.32;;;2.03;;
52494;SDS011;38405;53.212;5.660;2023-04-12T12:30:21;13.30;;;2.15;;
52494;SDS011;38405;53.212;5.660;2023-04-12T12:32:48;11.00;;;2.50;;
52494;SDS011;38405;53.212;5.660;2023-04-12T12:35:17;10.60;;;2.90;;
52494;SDS011;38405;53.212;5.660;2023-04-12T12:37:50;11.70;;;2.75;;
52494;SDS011;38405;53.212;5.660;2023-04-12T12:40:27;8.43;;;2.30;;
52494;SDS011;38405;53.212;5.660;2023-04-12T12:42:56;10.85;;;2.03;;
52494;SDS011;38405;53.212;5.660;2023-04-12T12:45:23;10.25;;;2.08;;
52494;SDS011;38405;53.212;5.660;2023-04-12T12:47:51;12.98;;;2.35;;
52494;SDS011;38405;53.212;5.660;2023-04-12T12:50:26;5.63;;;1.88;;
52494;SDS011;38405;53.212;5.660;2023-04-12T12:52:54;11.70;;;2.33;;
52494;SDS011;38405;53.212;5.660;2023-04-12T12:55:20;9.95;;;2.47;;
52494;SDS011;38405;53.212;5.660;2023-04-12T12:57:47;9.45;;;2.15;;
52494;SDS011;38405;53.212;5.660;2023-04-12T13:00:14;8.73;;;1.95;;
52494;SDS011;38405;53.212;5.660;2023-04-12T13:02:41;9.38;;;2.15;;
52494;SDS011;38405;53.212;5.660;2023-04-12T13:05:07;8.77;;;2.00;;
52494;SDS011;38405;53.212;5.660;2023-04-12T13:07:33;10.65;;;2.05;;
52494;SDS011;38405;53.212;5.660;2023-04-12T13:09:59;9.57;;;2.17;;
52494;SDS011;38405;53.212;5.660;2023-04-12T13:12:25;11.73;;;2.35;;
52494;SDS011;38405;53.212;5.660;2023-04-12T13:14:51;10.63;;;2.20;;
52494;SDS011;38405;53.212;5.660;2023-04-12T13:17:17;13.05;;;2.03;;
52494;SDS011;38405;53.212;5.660;2023-04-12T13:19:46;8.38;;;1.92;;
52494;SDS011;38405;53.212;5.660;2023-04-12T13:22:13;5.30;;;1.70;;
52494;SDS011;38405;53.212;5.660;2023-04-12T13:24:39;9.48;;;2.10;;
52494;SDS011;38405;53.212;5.660;2023-04-12T13:27:04;10.15;;;2.08;;
52494;SDS011;38405;53.212;5.660;2023-04-12T13:29:30;13.20;;;2.00;;
52494;SDS011;38405;53.212;5.660;2023-04-12T13:31:56;11.23;;;1.90;;
52494;SDS011;38405;53.212;5.660;2023-04-12T13:34:21;11.95;;;2.67;;
52494;SDS011;38405;53.212;5.660;2023-04-12T13:36:50;6.72;;;2.00;;
52494;SDS011;38405;53.212;5.660;2023-04-12T13:39:15;10.82;;;2.20;;
52494;SDS011;38405;53.212;5.660;2023-04-12T13:41:41;13.85;;;2.22;;
52494;SDS011;38405;53.212;5.660;2023-04-12T13:44:07;13.10;;;2.40;;
52494;SDS011;38405;53.212;5.660;2023-04-12T13:46:32;11.40;;;2.33;;
52494;SDS011;38405;53.212;5.660;2023-04-12T13:48:58;12.20;;;2.50;;
52494;SDS011;38405;53.212;5.660;2023-04-12T13:51:24;11.23;;;1.83;;
52494;SDS011;38405;53.212;5.660;2023-04-12T13:53:52;10.40;;;1.92;;
52494;SDS011;38405;53.212;5.660;2023-04-12T13:56:21;9.48;;;2.25;;
52494;SDS011;38405;53.212;5.660;2023-04-12T13:58:46;9.57;;;2.53;;
52494;SDS011;38405;53.212;5.660;2023-04-12T14:01:12;14.38;;;2.75;;
52494;SDS011;38405;53.212;5.660;2023-04-12T14:03:38;11.40;;;2.70;;
52494;SDS011;38405;53.212;5.660;2023-04-12T14:06:05;10.43;;;2.00;;
52494;SDS011;38405;53.212;5.660;2023-04-12T14:08:37;14.60;;;2.65;;
52494;SDS011;38405;53.212;5.660;2023-04-12T14:11:02;13.63;;;2.65;;
52494;SDS011;38405;53.212;5.660;2023-04-12T14:13:28;10.05;;;2.67;;
52494;SDS011;38405;53.212;5.660;2023-04-12T14:15:54;11.70;;;2.75;;
52494;SDS011;38405;53.212;5.660;2023-04-12T14:18:21;18.90;;;3.00;;
52494;SDS011;38405;53.212;5.660;2023-04-12T14:20:52;8.65;;;2.40;;
52494;SDS011;38405;53.212;5.660;2023-04-12T14:23:19;10.20;;;2.60;;
52494;SDS011;38405;53.212;5.660;2023-04-12T14:25:49;19.55;;;3.60;;
52494;SDS011;38405;53.212;5.660;2023-04-12T14:28:15;17.02;;;3.55;;
52494;SDS011;38405;53.212;5.660;2023-04-12T14:30:42;11.63;;;2.72;;
52494;SDS011;38405;53.212;5.660;2023-04-12T14:33:08;16.35;;;2.88;;
52494;SDS011;38405;53.212;5.660;2023-04-12T14:35:34;11.98;;;2.63;;
52494;SDS011;38405;53.212;5.660;2023-04-12T14:38:00;14.77;;;2.88;;
52494;SDS011;38405;53.212;5.660;2023-04-12T14:40:26;11.93;;;2.45;;
52494;SDS011;38405;53.212;5.660;2023-04-12T14:42:52;12.02;;;2.80;;
52494;SDS011;38405;53.212;5.660;2023-04-12T14:45:23;10.63;;;2.22;;
52494;SDS011;38405;53.212;5.660;2023-04-12T14:47:51;8.93;;;2.65;;
52494;SDS011;38405;53.212;5.660;2023-04-12T14:50:16;15.60;;;3.00;;
52494;SDS011;38405;53.212;5.660;2023-04-12T14:52:42;12.15;;;2.55;;
52494;SDS011;38405;53.212;5.660;2023-04-12T14:55:08;9.55;;;2.55;;
52494;SDS011;38405;53.212;5.660;2023-04-12T14:57:34;8.63;;;2.10;;
52494;SDS011;38405;53.212;5.660;2023-04-12T15:00:00;12.07;;;2.58;;
52494;SDS011;38405;53.212;5.660;2023-04-12T15:02:26;8.25;;;1.75;;
52494;SDS011;38405;53.212;5.660;2023-04-12T15:04:52;11.45;;;2.13;;
52494;SDS011;38405;53.212;5.660;2023-04-12T15:07:17;5.53;;;1.45;;
52494;SDS011;38405;53.212;5.660;2023-04-12T15:09:44;8.25;;;1.90;;
52494;SDS011;38405;53.212;5.660;2023-04-12T15:12:09;8.98;;;2.03;;
52494;SDS011;38405;53.212;5.660;2023-04-12T15:14:35;7.90;;;1.80;;